Friday, July 20, 2018, 8:23 PM EDT
Back to Local

KFIG, Clearfield-lawrence Airport

Location: Clearfield, PA, United States Lat: 41.05
Local Time: 8:23 PM EDT ( 0:23 GMT) Lon: -78.417
Time Zone: US/Eastern Elev: 1515 ft

Show me the last for .
Show Coded

Time T Td Feel RH Dir Speed Gust Alt SLP Vis Weather Sky Remarks
2018-07-20 19:54 75 58 78 55 Variable 7 - 30.02 30.00 10 CLR 6-hr Min Temp (8pm): 75.0°F
6-hr Max Temp (8pm): 82.9°F
2018-07-20 18:54 79 60 80 52 Variable 6 17 30.01 29.99 10 CLR None
2018-07-20 17:54 80 60 81 50 Variable 7 - 30.02 30.00 10 CLR None
2018-07-20 16:54 81 60 82 49 170° 9 21 30.02 30.00 10 CLR None
2018-07-20 15:54 80 61 81 52 Variable 7 - 30.04 30.02 10 FEW047 None
2018-07-20 14:54 80 61 81 52 Variable 5 20 30.06 30.04 10 FEW044 SCT070 None
2018-07-20 13:54 79 63 81 58 150° 8 - 30.08 30.05 10 BKN041 BKN048 OVC060 6-hr Min Temp (2pm): 62.1°F
6-hr Max Temp (2pm): 81.0°F
2018-07-20 12:54 81 63 83 54 Variable 5 - 30.09 30.06 10 SCT045 None
2018-07-20 11:54 79 60 80 52 Variable 5 - 30.10 30.08 10 FEW043 None
2018-07-20 10:54 77 62 79 60 Variable 6 - 30.11 30.08 10 CLR None
2018-07-20 09:54 73 62 77 68 200° 3 - 30.12 30.10 10 CLR None
2018-07-20 08:54 66 59 - 78 20° 6 - 30.13 30.11 10 CLR None
2018-07-20 07:54 62 58 - 86 30° 5 - 30.13 30.11 10 CLR 6-hr Min Temp (8am): 54.0°F
6-hr Max Temp (8am): 62.1°F
2018-07-20 06:54 56 55 - 96 10° 7 - 30.13 30.10 10 CLR None
2018-07-20 05:54 54 54 - 100 360° 7 - 30.11 30.09 10 CLR None
2018-07-20 04:54 55 54 - 96 360° 8 - 30.11 30.09 9 CLR None
2018-07-20 03:54 56 55 - 96 360° 8 - 30.12 30.09 10 CLR None
2018-07-20 02:54 56 55 - 96 350° 7 - 30.11 30.09 10 CLR None
2018-07-20 01:54 58 56 - 93 360° 7 - 30.11 30.09 10 CLR 6-hr Min Temp (2am): 57.9°F
6-hr Max Temp (2am): 75.9°F
2018-07-20 00:54 59 57 - 93 360° 6 - 30.12 30.10 10 CLR 24-hr Min Temp (1am): 52.0°F
24-hr Max Temp (1am): 81.0°F
2018-07-19 23:54 61 58 - 89 350° 6 - 30.12 30.10 10 CLR None
2018-07-19 22:54 63 59 - 86 Variable 6 - 30.11 30.09 10 CLR None
2018-07-19 21:54 66 60 - 81 360° 6 - 30.11 30.09 10 CLR None
2018-07-19 20:54 73 58 77 59 - Calm - 30.09 30.07 10 CLR None

Support USWX by starting your Amazon purchase here.